logo
Rechercher aéroport 
image banner adimage banner adimage banner ad
image banner ad

MHTL - Talanguita

Situé à Talanguita, Honduras

ICAO - , IATA -

Données fournies par Airmate  

Information générale

Coordonnées: N14°29'15" W87°10'47"
Élévation : 2437 feet MSL.
 
Voir autres Aéroports à Francisco Morazan

Données opérationnelles

Special qualification required
Heure actuelle UTC:
Heure actuelle locale:
Météo à : MHTG - Toncontin ( 48 km )
METAR: MHTG 281200Z 22003KT 9999 FEW012 16/14 Q1019 A3009 NOSIG
TAF: TAF MHTG 281100Z 2812/2912 VRB05KT 9999 FEW030 TX31/2820Z TN13/2912Z BECMG 2815/2817 06012KT CAVOK BECMG 2903/2905 VRB05KT 9999 SCT030
Voir NOTAMs / SUP AIP / TFR affectant cet aéroport [VIEW]
Fréquences de communication: [VIEW]

Pistes:

Coordonnées de l'aéroport

Adresse: Talanguita Honduras

Vue satellite de MHTL